Time;durP1;ratioP1;P1;durP2;ratioP2;P2;SDS_P1;SDS_P2;PMS_P1;PMS_P2;Temp;Humidity;BMP_temperature;BMP_pressure;BME280_temperature;BME280_humidity;BME280_pressure;Samples;Min_cycle;Max_cycle;Signal;HPM_P1;HPM_P2
2022/05/17 00:00:50;;;;;;;7.87;3.53;;;16.90;77.10;;;;;;5026863;28;20191;-60
2022/05/17 00:03:16;;;;;;;5.80;3.50;;;17.00;77.30;;;;;;5053519;28;20199;-60
2022/05/17 00:05:43;;;;;;;5.90;3.67;;;17.00;77.50;;;;;;5053028;28;20214;-60
2022/05/17 00:08:09;;;;;;;7.37;3.93;;;16.90;77.50;;;;;;5065021;28;20207;-60
2022/05/17 00:10:35;;;;;;;7.30;3.93;;;16.90;77.60;;;;;;5031156;28;20198;-61
2022/05/17 00:13:01;;;;;;;5.33;3.80;;;16.90;77.70;;;;;;5068409;28;20195;-61
2022/05/17 00:15:27;;;;;;;6.03;3.77;;;16.90;77.60;;;;;;5019223;28;20191;-61
2022/05/17 00:17:54;;;;;;;5.77;3.63;;;16.80;77.70;;;;;;5019312;28;20286;-60
2022/05/17 00:20:20;;;;;;;4.40;3.20;;;16.80;77.80;;;;;;5068462;28;20187;-61
2022/05/17 00:22:46;;;;;;;4.43;3.30;;;16.80;78.10;;;;;;5019310;28;20201;-61
2022/05/17 00:25:14;;;;;;;5.23;3.43;;;16.90;78.10;;;;;;5005677;28;20652;-61
2022/05/17 00:27:40;;;;;;;7.37;3.43;;;16.80;78.30;;;;;;5032514;28;20278;-61
2022/05/17 00:30:08;;;;;;;7.33;3.50;;;16.80;78.20;;;;;;5049478;28;20266;-61
2022/05/17 00:32:34;;;;;;;5.83;3.77;;;16.80;78.20;;;;;;5035764;28;20183;-62
2022/05/17 00:35:00;;;;;;;6.07;3.80;;;16.80;78.40;;;;;;5065529;28;20179;-62
2022/05/17 00:37:26;;;;;;;8.83;3.27;;;16.80;78.30;;;;;;5018706;28;20198;-61
2022/05/17 00:39:51;;;;;;;6.53;2.97;;;16.80;78.40;;;;;;5035009;28;20196;-62
2022/05/17 00:42:17;;;;;;;4.83;3.83;;;16.80;78.50;;;;;;5016560;28;20196;-62
2022/05/17 00:44:45;;;;;;;5.13;3.43;;;16.80;78.40;;;;;;5019148;28;20199;-61
2022/05/17 00:47:32;;;;;;;4.33;2.93;;;16.80;78.40;;;;;;5036763;28;20183;-61
2022/05/17 00:50:15;;;;;;;3.50;2.87;;;16.80;78.40;;;;;;5033388;28;20214;-61
2022/05/17 00:52:51;;;;;;;3.77;3.30;;;16.80;78.40;;;;;;5066959;28;20219;-62
2022/05/17 00:55:22;;;;;;;4.70;3.00;;;16.90;78.60;;;;;;5066291;28;20270;-62
2022/05/17 00:57:56;;;;;;;6.53;3.50;;;16.90;78.70;;;;;;5034005;28;20223;-62
2022/05/17 01:00:24;;;;;;;5.00;3.40;;;16.90;78.90;;;;;;5034887;28;20195;-62
2022/05/17 01:02:54;;;;;;;5.90;3.30;;;16.90;78.70;;;;;;4999577;28;20195;-63
2022/05/17 01:05:23;;;;;;;5.27;3.03;;;16.90;78.60;;;;;;5048829;28;20207;-61
2022/05/17 01:07:54;;;;;;;3.40;3.07;;;16.90;78.60;;;;;;5048648;28;20175;-62
2022/05/17 01:10:20;;;;;;;3.33;3.00;;;16.80;78.10;;;;;;5016290;28;20207;-61
2022/05/17 01:14:57;;;;;;;3.77;2.90;;;16.90;77.60;;;;;;4999108;28;20211;-61
2022/05/17 01:15:32;;;;;;;6.27;2.90;;;16.90;76.80;;;;;;5015250;28;20207;-63
2022/05/17 01:17:58;;;;;;;3.60;2.70;;;16.90;76.40;;;;;;5015447;28;20172;-62
2022/05/17 01:20:23;;;;;;;6.73;3.10;;;16.90;75.60;;;;;;5013971;28;20253;-61
2022/05/17 01:22:49;;;;;;;4.20;2.90;;;17.00;74.30;;;;;;5051711;28;20222;-61
2022/05/17 01:25:15;;;;;;;3.77;2.80;;;17.10;73.50;;;;;;5047489;28;20184;-61
2022/05/17 01:27:48;;;;;;;2.80;2.60;;;17.20;73.50;;;;;;5018375;28;20187;-62
2022/05/17 01:30:20;;;;;;;4.93;2.60;;;17.30;73.50;;;;;;5034489;28;20187;-61
2022/05/17 01:32:47;;;;;;;5.33;3.30;;;17.30;72.60;;;;;;5034675;28;20168;-61
2022/05/17 01:35:13;;;;;;;6.30;3.20;;;17.40;72.10;;;;;;5014912;28;20311;-61
2022/05/17 01:37:39;;;;;;;6.03;2.77;;;17.40;72.40;;;;;;5047907;28;20270;-61
2022/05/17 01:40:05;;;;;;;4.23;2.30;;;17.50;72.20;;;;;;5014224;28;20228;-61
2022/05/17 01:42:31;;;;;;;3.73;2.77;;;17.50;71.80;;;;;;5033171;28;20188;-61
2022/05/17 01:44:56;;;;;;;4.80;2.50;;;17.60;71.50;;;;;;5014702;28;20196;-61
2022/05/17 01:47:22;;;;;;;3.90;2.47;;;17.60;71.00;;;;;;5022753;28;20290;-61
2022/05/17 01:49:48;;;;;;;4.50;2.53;;;17.60;70.80;;;;;;5017992;28;20211;-61
2022/05/17 01:52:13;;;;;;;3.53;2.80;;;17.70;71.00;;;;;;5011964;28;20199;-61
2022/05/17 01:54:39;;;;;;;4.83;2.30;;;17.70;70.40;;;;;;5031329;28;20172;-61
2022/05/17 01:57:05;;;;;;;5.80;2.83;;;17.70;70.00;;;;;;5034880;28;20176;-61
2022/05/17 01:59:33;;;;;;;4.13;2.30;;;17.80;69.70;;;;;;5026143;28;20198;-62
2022/05/17 02:01:58;;;;;;;4.87;2.60;;;17.80;69.60;;;;;;5027657;28;20188;-61
2022/05/17 02:04:24;;;;;;;2.37;2.17;;;17.80;69.80;;;;;;4998402;28;20188;-61
2022/05/17 02:06:50;;;;;;;3.07;2.57;;;17.80;69.80;;;;;;5014280;28;20195;-61
2022/05/17 02:09:15;;;;;;;4.57;2.20;;;17.80;69.30;;;;;;4997655;28;20211;-61
2022/05/17 02:11:41;;;;;;;3.83;2.20;;;17.80;69.00;;;;;;4997714;28;20234;-61
2022/05/17 02:14:07;;;;;;;2.80;2.50;;;17.90;69.00;;;;;;5015960;28;20198;-61
2022/05/17 02:16:40;;;;;;;6.73;2.73;;;17.90;69.10;;;;;;5017564;28;20186;-61
2022/05/17 02:19:06;;;;;;;5.83;2.83;;;17.90;69.10;;;;;;5008381;28;20195;-61
2022/05/17 02:21:36;;;;;;;4.10;2.73;;;17.90;69.30;;;;;;5030511;28;20190;-61
2022/05/17 02:24:03;;;;;;;4.17;2.77;;;17.90;69.50;;;;;;5014240;28;20207;-62
2022/05/17 02:26:30;;;;;;;4.30;2.60;;;17.90;69.70;;;;;;5047143;28;20174;-62
2022/05/17 02:28:56;;;;;;;5.50;2.60;;;17.90;69.30;;;;;;5030468;28;20238;-62
2022/05/17 02:31:22;;;;;;;3.10;2.50;;;17.90;69.10;;;;;;5001917;28;20211;-62
2022/05/17 02:33:48;;;;;;;3.07;2.77;;;17.90;69.50;;;;;;4996785;28;20213;-62
2022/05/17 02:36:13;;;;;;;3.83;2.67;;;17.90;69.30;;;;;;5013467;28;20183;-62
2022/05/17 02:38:40;;;;;;;6.20;2.70;;;17.90;68.90;;;;;;4997676;28;20192;-62
2022/05/17 02:41:06;;;;;;;4.27;2.53;;;17.90;68.80;;;;;;5014973;28;20226;-62
2022/05/17 02:43:33;;;;;;;4.63;2.30;;;17.90;68.60;;;;;;5013556;28;20191;-62
2022/05/17 02:45:58;;;;;;;3.43;2.47;;;18.00;68.50;;;;;;5014728;28;20171;-61
2022/05/17 02:48:24;;;;;;;5.03;2.57;;;18.00;68.40;;;;;;5013886;28;20291;-62
2022/05/17 02:50:50;;;;;;;3.67;2.37;;;18.00;68.30;;;;;;5046393;28;20232;-62
2022/05/17 02:53:15;;;;;;;4.43;2.40;;;18.00;68.10;;;;;;5013864;28;20180;-62
2022/05/17 02:55:41;;;;;;;6.67;2.80;;;18.10;67.80;;;;;;4997267;28;20235;-61
2022/05/17 02:58:06;;;;;;;5.00;2.80;;;18.10;67.90;;;;;;5009252;28;20190;-62
2022/05/17 03:00:33;;;;;;;7.73;2.60;;;18.10;68.10;;;;;;5048163;28;20195;-61
2022/05/17 03:02:58;;;;;;;3.17;2.40;;;18.10;68.00;;;;;;5025158;28;20191;-61
2022/05/17 03:05:24;;;;;;;2.50;2.20;;;18.00;68.00;;;;;;5016668;28;20191;-61
2022/05/17 03:07:50;;;;;;;3.03;2.30;;;18.10;68.00;;;;;;5013706;28;20274;-62
2022/05/17 03:10:17;;;;;;;4.30;2.60;;;18.10;68.00;;;;;;5024902;28;20186;-62
2022/05/17 03:12:44;;;;;;;5.23;2.77;;;18.10;68.00;;;;;;5032695;28;20199;-62
2022/05/17 03:15:12;;;;;;;2.83;2.60;;;18.10;68.20;;;;;;5016195;28;20189;-62
2022/05/17 03:17:38;;;;;;;4.23;2.80;;;18.10;68.20;;;;;;5032937;28;20218;-62
2022/05/17 03:20:05;;;;;;;4.53;3.20;;;18.10;68.40;;;;;;5033449;28;20214;-62
2022/05/17 03:22:31;;;;;;;4.10;2.87;;;18.10;68.50;;;;;;5037066;28;20183;-61
2022/05/17 03:24:56;;;;;;;4.77;2.70;;;18.10;68.00;;;;;;5017591;28;20198;-61
2022/05/17 03:27:22;;;;;;;5.50;2.80;;;18.10;68.00;;;;;;5054081;28;20230;-62
2022/05/17 03:29:47;;;;;;;3.23;2.77;;;18.20;68.00;;;;;;5048140;28;20314;-62
2022/05/17 03:32:13;;;;;;;3.33;2.47;;;18.20;67.90;;;;;;5000986;28;20227;-62
2022/05/17 03:34:39;;;;;;;5.20;2.87;;;18.10;68.20;;;;;;5000687;28;20188;-61
2022/05/17 03:37:05;;;;;;;3.90;2.63;;;18.10;67.90;;;;;;5052847;28;20286;-62
2022/05/17 03:39:30;;;;;;;2.77;2.40;;;18.10;67.80;;;;;;5020682;28;20183;-62
2022/05/17 03:41:56;;;;;;;2.83;2.20;;;18.10;67.80;;;;;;5018521;28;20258;-61
2022/05/17 03:44:21;;;;;;;4.77;3.00;;;18.10;68.00;;;;;;5016712;28;20176;-61
2022/05/17 03:46:47;;;;;;;3.60;2.43;;;18.10;68.20;;;;;;5016060;28;20188;-62
2022/05/17 03:49:13;;;;;;;3.07;2.60;;;18.10;68.20;;;;;;5020485;28;20250;-59
2022/05/17 03:51:39;;;;;;;4.50;3.23;;;18.00;68.40;;;;;;5028941;28;20194;-59
2022/05/17 03:54:05;;;;;;;3.57;2.50;;;18.00;68.60;;;;;;5020204;28;20180;-59
2022/05/17 03:56:31;;;;;;;3.30;2.53;;;18.00;68.90;;;;;;5033954;28;20187;-58
2022/05/17 03:58:56;;;;;;;4.77;2.87;;;18.00;69.30;;;;;;5035557;28;20188;-58
2022/05/17 04:01:22;;;;;;;6.73;2.90;;;18.00;69.70;;;;;;5018614;28;20194;-60
2022/05/17 04:03:48;;;;;;;4.13;3.13;;;17.90;70.70;;;;;;5019879;28;20192;-60
2022/05/17 04:06:13;;;;;;;6.17;3.03;;;17.90;71.90;;;;;;5018998;28;20247;-60
2022/05/17 04:08:40;;;;;;;3.43;2.77;;;17.90;73.20;;;;;;5020643;28;20203;-60
2022/05/17 04:11:06;;;;;;;4.00;2.83;;;17.90;74.00;;;;;;5016640;28;20176;-60
2022/05/17 04:13:32;;;;;;;3.13;2.77;;;17.80;74.80;;;;;;5016617;28;20239;-60
2022/05/17 04:15:59;;;;;;;5.23;2.60;;;17.80;75.30;;;;;;5030744;28;20176;-60
2022/05/17 04:18:27;;;;;;;4.73;2.57;;;17.70;74.10;;;;;;5017353;28;20199;-60
2022/05/17 04:21:00;;;;;;;4.63;2.97;;;17.70;74.80;;;;;;5016406;28;20223;-60
2022/05/17 04:23:26;;;;;;;3.23;2.53;;;17.60;75.70;;;;;;5023042;28;20187;-59
2022/05/17 04:25:52;;;;;;;2.60;2.40;;;17.60;75.90;;;;;;5018101;28;20225;-60
2022/05/17 04:28:17;;;;;;;5.27;2.70;;;17.50;76.60;;;;;;5049203;28;20219;-60
2022/05/17 04:30:44;;;;;;;2.90;2.70;;;17.50;77.30;;;;;;5015622;28;20192;-60
2022/05/17 04:33:10;;;;;;;3.40;2.77;;;17.50;77.60;;;;;;5032434;28;20188;-60
2022/05/17 04:35:36;;;;;;;4.47;2.70;;;17.40;78.20;;;;;;5064163;28;20190;-60
2022/05/17 04:38:02;;;;;;;4.60;3.30;;;17.40;78.80;;;;;;5033942;28;20188;-59
2022/05/17 04:40:29;;;;;;;3.00;2.70;;;17.40;78.80;;;;;;5007268;28;20274;-59
2022/05/17 04:42:57;;;;;;;2.90;2.33;;;17.40;79.20;;;;;;5068745;28;20194;-60
2022/05/17 04:45:24;;;;;;;7.43;3.23;;;17.30;79.40;;;;;;5050334;28;20187;-60
2022/05/17 04:47:50;;;;;;;3.10;2.80;;;17.30;79.80;;;;;;5015806;28;20223;-61
2022/05/17 04:50:17;;;;;;;4.27;2.63;;;17.30;80.10;;;;;;5032194;28;20235;-61
2022/05/17 04:52:43;;;;;;;3.20;2.90;;;17.30;80.40;;;;;;5032085;28;20249;-60
2022/05/17 04:55:10;;;;;;;3.53;2.60;;;17.30;80.40;;;;;;5032649;28;20199;-60
2022/05/17 04:57:37;;;;;;;5.23;3.20;;;17.30;80.10;;;;;;5062474;28;20191;-61
2022/05/17 05:00:09;;;;;;;3.87;3.30;;;17.30;79.90;;;;;;5062844;28;20257;-60
2022/05/17 05:02:35;;;;;;;2.90;2.60;;;17.30;80.00;;;;;;5016128;28;20199;-61
2022/05/17 05:05:01;;;;;;;7.80;3.60;;;17.30;79.80;;;;;;5048880;28;20283;-60
2022/05/17 05:07:27;;;;;;;3.73;2.90;;;17.30;80.00;;;;;;5016163;28;20237;-60
2022/05/17 05:09:53;;;;;;;7.50;3.33;;;17.30;80.10;;;;;;5047073;28;20231;-60
2022/05/17 05:12:18;;;;;;;5.77;3.40;;;17.30;80.40;;;;;;5064871;28;20190;-61
2022/05/17 05:14:44;;;;;;;5.20;3.33;;;17.30;80.70;;;;;;5064039;28;20178;-61
2022/05/17 05:17:10;;;;;;;4.60;3.07;;;17.30;81.10;;;;;;5014639;28;20192;-61
2022/05/17 05:19:36;;;;;;;4.93;3.43;;;17.40;81.10;;;;;;5014317;28;20253;-61
2022/05/17 05:22:02;;;;;;;8.50;4.00;;;17.30;81.30;;;;;;5015871;28;20229;-61
2022/05/17 05:24:27;;;;;;;4.97;3.60;;;17.40;81.70;;;;;;5002011;28;20187;-62
2022/05/17 05:26:53;;;;;;;5.57;4.10;;;17.40;82.30;;;;;;5046846;28;20294;-59
2022/05/17 05:29:19;;;;;;;5.33;3.87;;;17.40;82.80;;;;;;5047522;28;20265;-60
2022/05/17 05:31:44;;;;;;;3.97;3.57;;;17.40;83.10;;;;;;5015183;28;20183;-62
2022/05/17 05:34:10;;;;;;;6.10;4.10;;;17.40;83.10;;;;;;5048384;28;20191;-62
2022/05/17 05:36:36;;;;;;;5.10;3.67;;;17.40;83.80;;;;;;5029546;28;20278;-61
2022/05/17 05:39:03;;;;;;;4.10;3.40;;;17.40;83.80;;;;;;5048330;28;20194;-62
2022/05/17 05:41:29;;;;;;;4.37;3.60;;;17.40;84.30;;;;;;5047331;28;20246;-60
2022/05/17 05:43:54;;;;;;;5.93;3.97;;;17.50;84.50;;;;;;5031041;28;20183;-60
2022/05/17 05:46:21;;;;;;;6.57;3.83;;;17.40;83.00;;;;;;5012035;28;20190;-61
2022/05/17 05:48:47;;;;;;;4.53;4.10;;;17.50;83.20;;;;;;5028744;28;20246;-61
2022/05/17 05:51:12;;;;;;;5.73;4.00;;;17.50;83.10;;;;;;5028512;28;20184;-61
2022/05/17 05:53:38;;;;;;;5.80;3.60;;;17.50;83.40;;;;;;5012539;28;20176;-60
2022/05/17 05:56:05;;;;;;;4.63;3.70;;;17.50;83.60;;;;;;5040228;28;20195;-61
2022/05/17 05:58:42;;;;;;;4.53;3.43;;;17.60;83.90;;;;;;5030053;28;20195;-61
2022/05/17 06:01:08;;;;;;;5.17;3.33;;;17.60;83.80;;;;;;5047242;28;20250;-61
2022/05/17 06:03:35;;;;;;;4.70;3.60;;;17.60;83.70;;;;;;5047928;28;20274;-60
2022/05/17 06:06:02;;;;;;;5.93;3.57;;;17.70;83.20;;;;;;5049761;28;20175;-60
2022/05/17 06:08:28;;;;;;;6.17;3.93;;;17.70;82.70;;;;;;5044037;28;20204;-61
2022/05/17 06:10:54;;;;;;;4.00;3.47;;;17.70;82.70;;;;;;5045243;28;20187;-61
2022/05/17 06:13:20;;;;;;;10.60;3.90;;;17.80;82.40;;;;;;5014756;28;20205;-61
2022/05/17 06:15:47;;;;;;;4.70;3.23;;;17.80;82.40;;;;;;5015105;28;20183;-61
2022/05/17 06:18:13;;;;;;;5.07;3.30;;;17.80;82.60;;;;;;5031163;28;20172;-61
2022/05/17 06:20:39;;;;;;;9.07;3.73;;;17.90;82.80;;;;;;5045834;28;20219;-60
2022/05/17 06:23:06;;;;;;;7.17;4.10;;;17.90;83.10;;;;;;5016133;28;20198;-60
2022/05/17 06:25:35;;;;;;;3.97;3.50;;;17.90;82.50;;;;;;5016506;28;20183;-60
2022/05/17 06:28:01;;;;;;;5.17;3.70;;;18.00;82.20;;;;;;5032584;28;20179;-61
2022/05/17 06:30:27;;;;;;;6.10;4.17;;;18.00;82.40;;;;;;5016452;28;20228;-60
2022/05/17 06:32:52;;;;;;;6.93;3.63;;;18.00;82.00;;;;;;5016332;28;20193;-60
2022/05/17 06:35:18;;;;;;;4.07;3.50;;;18.10;81.90;;;;;;5015407;28;20225;-60
2022/05/17 06:37:44;;;;;;;4.93;3.60;;;18.10;81.70;;;;;;5016265;28;20188;-60
2022/05/17 06:40:10;;;;;;;8.97;3.60;;;18.20;81.90;;;;;;5012186;28;20239;-60
2022/05/17 06:42:37;;;;;;;6.37;3.80;;;18.20;81.50;;;;;;5045554;28;20187;-61
2022/05/17 06:45:03;;;;;;;5.53;3.07;;;18.30;81.10;;;;;;5044544;28;20184;-60
2022/05/17 06:47:29;;;;;;;4.90;3.20;;;18.30;81.30;;;;;;5011022;28;20187;-60
2022/05/17 06:49:55;;;;;;;6.03;3.33;;;18.50;80.90;;;;;;5011245;28;20211;-60
2022/05/17 06:52:23;;;;;;;4.97;3.27;;;18.50;80.70;;;;;;5047763;28;20190;-60
2022/05/17 06:54:49;;;;;;;5.63;3.53;;;18.60;79.50;;;;;;5046771;28;20184;-60
2022/05/17 06:57:15;;;;;;;7.47;3.57;;;18.70;79.20;;;;;;5036790;28;20187;-61
2022/05/17 06:59:43;;;;;;;5.90;3.23;;;18.70;77.60;;;;;;5014914;28;20191;-61
2022/05/17 07:02:09;;;;;;;4.63;2.90;;;18.80;77.30;;;;;;5023417;28;20187;-60
2022/05/17 07:04:35;;;;;;;8.53;3.20;;;18.90;77.70;;;;;;5029078;28;20266;-60
2022/05/17 07:07:01;;;;;;;4.60;3.00;;;19.00;77.40;;;;;;5028555;28;20184;-60
2022/05/17 07:09:29;;;;;;;4.13;2.93;;;19.10;77.00;;;;;;5028908;28;20212;-60
2022/05/17 07:14:39;;;;;;;5.17;2.97;;;19.30;76.40;;;;;;5032988;28;20232;-60
2022/05/17 07:17:16;;;;;;;5.67;2.83;;;19.30;76.00;;;;;;5015198;28;20184;-60
2022/05/17 07:19:46;;;;;;;5.23;2.80;;;19.40;76.30;;;;;;5011003;28;20184;-60
2022/05/17 07:22:12;;;;;;;3.60;2.67;;;19.50;76.40;;;;;;5010827;28;20222;-61
2022/05/17 07:24:40;;;;;;;5.43;2.80;;;19.60;76.30;;;;;;5027649;28;20190;-60
2022/05/17 07:27:07;;;;;;;3.23;2.67;;;19.60;74.50;;;;;;5002684;28;20191;-60
2022/05/17 07:29:33;;;;;;;3.43;2.40;;;19.70;71.20;;;;;;5044498;28;20203;-60
2022/05/17 07:31:59;;;;;;;6.10;2.70;;;19.70;68.60;;;;;;5010074;28;20184;-60
2022/05/17 07:34:27;;;;;;;3.17;2.63;;;19.80;70.10;;;;;;5027064;28;20261;-60
2022/05/17 07:36:53;;;;;;;5.37;2.60;;;19.80;68.70;;;;;;5052263;28;20222;-61
2022/05/17 07:39:19;;;;;;;3.60;2.27;;;19.90;67.40;;;;;;5014720;28;20218;-61
2022/05/17 07:41:44;;;;;;;4.20;2.47;;;19.90;68.50;;;;;;5030818;28;20273;-60
2022/05/17 07:44:11;;;;;;;6.33;2.90;;;20.00;67.70;;;;;;5015354;28;20329;-60
2022/05/17 07:46:37;;;;;;;5.83;2.70;;;20.00;68.60;;;;;;5013629;28;20191;-60
2022/05/17 07:49:03;;;;;;;6.53;2.77;;;20.10;66.70;;;;;;5047869;28;20215;-61
2022/05/17 07:51:30;;;;;;;5.90;2.57;;;20.20;66.80;;;;;;5064548;28;20272;-60
2022/05/17 07:53:56;;;;;;;3.23;2.37;;;20.20;66.60;;;;;;5038485;28;20195;-60
2022/05/17 07:56:21;;;;;;;5.87;2.90;;;20.20;66.40;;;;;;4995557;28;20183;-60
2022/05/17 07:58:47;;;;;;;4.50;2.40;;;20.30;66.70;;;;;;4994989;28;20196;-60
2022/05/17 08:01:13;;;;;;;2.43;2.17;;;20.30;67.80;;;;;;5011770;28;20242;-60
2022/05/17 08:03:39;;;;;;;4.10;2.10;;;20.40;66.30;;;;;;5028220;28;20223;-60
2022/05/17 08:06:05;;;;;;;2.80;2.17;;;20.50;63.70;;;;;;5012209;28;20222;-60
2022/05/17 08:08:31;;;;;;;4.93;2.40;;;20.50;63.80;;;;;;5031943;28;20219;-60
2022/05/17 08:10:57;;;;;;;2.27;1.90;;;20.60;64.80;;;;;;5050354;28;20191;-60
2022/05/17 08:13:24;;;;;;;2.67;2.07;;;20.70;64.20;;;;;;5018346;28;20193;-61
2022/05/17 08:15:50;;;;;;;3.03;1.80;;;20.70;65.60;;;;;;5018322;28;20194;-60
2022/05/17 08:18:17;;;;;;;4.23;1.60;;;20.80;64.20;;;;;;5034204;28;20197;-61
2022/05/17 08:20:43;;;;;;;3.73;2.07;;;20.80;60.70;;;;;;5034680;28;20212;-60
2022/05/17 08:23:09;;;;;;;3.07;1.27;;;20.90;60.80;;;;;;5067284;28;20183;-60
2022/05/17 08:28:19;;;;;;;1.40;1.20;;;21.20;59.30;;;;;;5048344;28;20241;-60
2022/05/17 08:30:46;;;;;;;2.70;1.20;;;21.30;58.40;;;;;;5017668;28;20197;-60
2022/05/17 08:33:20;;;;;;;3.73;1.73;;;21.30;58.60;;;;;;5051002;28;20287;-60
2022/05/17 08:35:52;;;;;;;3.67;1.43;;;21.40;55.60;;;;;;5067543;28;20190;-60
2022/05/17 08:38:22;;;;;;;3.47;1.40;;;21.50;54.80;;;;;;5067278;28;20179;-60
2022/05/17 08:41:00;;;;;;;2.67;1.60;;;21.70;54.20;;;;;;5061996;28;20238;-60
2022/05/17 08:43:51;;;;;;;3.73;1.20;;;21.80;53.40;;;;;;5034560;28;20191;-60
2022/05/17 08:46:54;;;;;;;2.57;1.20;;;21.80;52.50;;;;;;5027414;28;20333;-60
2022/05/17 08:49:31;;;;;;;2.03;1.30;;;21.90;52.40;;;;;;5067316;28;20210;-60
2022/05/17 08:51:59;;;;;;;3.57;1.30;;;22.00;54.10;;;;;;5067320;28;20190;-60
2022/05/17 08:54:40;;;;;;;1.60;1.20;;;22.10;53.40;;;;;;5067321;28;20190;-60
2022/05/17 08:57:09;;;;;;;3.40;1.50;;;22.20;50.90;;;;;;5034366;28;20195;-60
2022/05/17 08:59:37;;;;;;;2.07;1.33;;;22.20;51.50;;;;;;5033420;28;20195;-61
2022/05/17 09:02:17;;;;;;;2.47;1.30;;;22.30;51.70;;;;;;5066421;28;20183;-60
2022/05/17 09:04:54;;;;;;;2.03;1.53;;;22.40;52.60;;;;;;5013244;28;20186;-61
2022/05/17 09:07:27;;;;;;;2.77;1.57;;;22.50;51.30;;;;;;5045874;28;20270;-60
2022/05/17 09:10:32;;;;;;;3.00;1.63;;;22.50;51.40;;;;;;5014378;28;20215;-60
2022/05/17 09:13:09;;;;;;;6.30;1.57;;;22.60;51.20;;;;;;5028429;28;20199;-60
2022/05/17 09:15:34;;;;;;;1.53;1.20;;;22.70;49.70;;;;;;5066507;28;20243;-60
2022/05/17 09:18:07;;;;;;;2.33;1.23;;;22.70;49.40;;;;;;5047987;28;20268;-60
2022/05/17 09:20:34;;;;;;;1.80;1.10;;;22.80;51.50;;;;;;5032743;28;20198;-60
2022/05/17 09:23:00;;;;;;;3.43;1.20;;;22.80;48.40;;;;;;5048576;28;20194;-61
2022/05/17 09:25:43;;;;;;;1.63;1.00;;;22.90;47.70;;;;;;5033818;28;20191;-60
2022/05/17 09:28:09;;;;;;;2.43;1.30;;;23.00;49.60;;;;;;5031973;28;20191;-60
2022/05/17 09:30:37;;;;;;;2.30;1.40;;;23.10;51.50;;;;;;5016715;28;20206;-60
2022/05/17 09:33:11;;;;;;;2.53;1.50;;;23.20;49.30;;;;;;5015214;28;20198;-60
2022/05/17 09:36:00;;;;;;;2.23;1.27;;;23.20;45.90;;;;;;5066839;28;20185;-60
2022/05/17 09:38:36;;;;;;;1.53;1.10;;;23.30;44.60;;;;;;5052125;28;20255;-60
2022/05/17 09:41:06;;;;;;;1.10;0.90;;;23.30;44.80;;;;;;5012531;28;20243;-60
2022/05/17 09:43:55;;;;;;;1.37;1.23;;;23.40;43.30;;;;;;5058062;28;20195;-60
2022/05/17 09:46:32;;;;;;;1.87;1.00;;;23.40;43.00;;;;;;5032584;28;20179;-60
2022/05/17 09:54:47;;;;;;;5.00;1.33;;;23.40;43.60;;;;;;5014026;28;20198;-60
2022/05/17 09:57:29;;;;;;;2.87;1.27;;;23.30;43.70;;;;;;5012858;28;20178;-60
2022/05/17 10:00:13;;;;;;;1.80;0.77;;;23.30;44.30;;;;;;5013570;28;20180;-60
2022/05/17 10:02:40;;;;;;;1.67;1.20;;;23.30;43.80;;;;;;5025438;28;20183;-60
2022/05/17 10:05:23;;;;;;;1.63;1.00;;;23.20;45.40;;;;;;5031908;28;20167;-60
2022/05/17 10:07:55;;;;;;;4.37;1.40;;;23.30;47.30;;;;;;5032281;28;20182;-61
2022/05/17 10:10:25;;;;;;;1.47;1.00;;;23.30;47.30;;;;;;5064630;28;20289;-61
2022/05/17 10:12:51;;;;;;;1.30;1.10;;;23.40;49.40;;;;;;5064532;28;20206;-61
2022/05/17 10:15:19;;;;;;;4.60;1.10;;;23.50;48.40;;;;;;5015465;28;20266;-60
2022/05/17 10:17:57;;;;;;;1.43;0.93;;;23.50;48.00;;;;;;5031928;28;20186;-61
2022/05/17 10:20:46;;;;;;;1.73;0.90;;;23.60;46.90;;;;;;5032979;28;20196;-61
2022/05/17 10:23:14;;;;;;;2.03;1.03;;;23.70;46.40;;;;;;5031115;28;20187;-60
2022/05/17 10:25:53;;;;;;;1.93;1.10;;;23.70;47.40;;;;;;5031656;28;20183;-60
2022/05/17 10:28:26;;;;;;;1.40;1.10;;;23.80;46.60;;;;;;5031188;28;20183;-60
2022/05/17 10:30:57;;;;;;;1.70;1.00;;;23.80;45.80;;;;;;5031383;28;20246;-61
2022/05/17 10:33:35;;;;;;;1.40;1.07;;;23.80;46.10;;;;;;5029960;28;20183;-61
2022/05/17 10:36:14;;;;;;;1.00;1.00;;;23.90;45.60;;;;;;5029249;28;20188;-60
2022/05/17 10:39:04;;;;;;;1.67;0.90;;;23.90;44.20;;;;;;5045642;28;20171;-60
2022/05/17 10:41:30;;;;;;;2.00;1.17;;;23.90;45.60;;;;;;5045402;28;20266;-60
2022/05/17 10:43:58;;;;;;;2.33;1.00;;;24.00;45.90;;;;;;5045512;28;20176;-60
2022/05/17 10:46:31;;;;;;;1.23;1.00;;;24.20;46.00;;;;;;5045826;28;20250;-60
2022/05/17 10:49:25;;;;;;;3.73;1.50;;;24.20;46.00;;;;;;5051390;28;20207;-60
2022/05/17 10:52:25;;;;;;;1.83;1.17;;;24.20;45.20;;;;;;5031187;28;20183;-59
2022/05/17 10:55:08;;;;;;;2.00;1.03;;;24.30;45.70;;;;;;5013983;28;20199;-60
2022/05/17 10:57:52;;;;;;;2.60;1.23;;;24.30;44.80;;;;;;5045416;28;20180;-59
2022/05/17 11:00:22;;;;;;;1.63;1.07;;;24.20;43.30;;;;;;5061519;28;20290;-59
2022/05/17 11:03:16;;;;;;;2.00;1.10;;;24.20;43.20;;;;;;5058113;28;20198;-60
2022/05/17 11:06:00;;;;;;;2.90;1.00;;;24.10;42.20;;;;;;5043901;28;20290;-60
2022/05/17 11:08:54;;;;;;;1.30;0.87;;;24.10;42.70;;;;;;5011488;28;20266;-60
2022/05/17 11:11:28;;;;;;;2.00;1.13;;;24.00;44.20;;;;;;5013431;28;20176;-60
2022/05/17 11:14:01;;;;;;;1.17;0.90;;;24.00;45.70;;;;;;5011424;28;20202;-60
2022/05/17 11:16:37;;;;;;;2.53;1.17;;;24.10;46.40;;;;;;5045060;28;20190;-60
2022/05/17 11:19:05;;;;;;;3.00;1.30;;;24.10;47.10;;;;;;5044066;28;20290;-60
2022/05/17 11:21:50;;;;;;;1.33;1.23;;;24.20;48.70;;;;;;5044570;28;20257;-60
2022/05/17 11:24:16;;;;;;;1.63;1.13;;;24.40;46.30;;;;;;5025435;28;20248;-60
2022/05/17 11:26:57;;;;;;;3.07;1.17;;;24.60;46.30;;;;;;5031322;28;20187;-60
2022/05/17 11:29:42;;;;;;;3.77;1.10;;;24.70;46.90;;;;;;5029844;28;20237;-60
2022/05/17 11:32:17;;;;;;;1.07;0.97;;;24.80;43.60;;;;;;5030424;28;20183;-59
2022/05/17 11:34:45;;;;;;;3.10;1.10;;;25.00;42.60;;;;;;5028784;28;20253;-58
2022/05/17 11:37:45;;;;;;;1.30;0.97;;;25.10;43.60;;;;;;5062966;28;20272;-58
2022/05/17 11:40:11;;;;;;;2.67;1.17;;;25.20;43.50;;;;;;5041329;28;20210;-60
2022/05/17 11:45:51;;;;;;;1.30;1.00;;;25.30;40.80;;;;;;5035264;28;20209;-61
2022/05/17 11:48:43;;;;;;;2.40;1.10;;;25.30;40.10;;;;;;5033656;28;20214;-61
2022/05/17 11:51:09;;;;;;;1.00;0.90;;;25.10;41.10;;;;;;5032446;28;20195;-61
2022/05/17 11:53:48;;;;;;;3.20;1.20;;;25.00;40.80;;;;;;5032817;28;20191;-60
2022/05/17 11:56:15;;;;;;;1.10;1.00;;;24.90;40.70;;;;;;5066751;28;20190;-60
2022/05/17 11:58:49;;;;;;;2.43;1.10;;;24.70;41.00;;;;;;5064244;28;20195;-61
2022/05/17 12:01:31;;;;;;;3.17;1.20;;;24.70;42.00;;;;;;5031749;28;20186;-62
2022/05/17 12:04:06;;;;;;;1.77;1.30;;;24.60;43.60;;;;;;5034701;28;20183;-62
2022/05/17 12:06:36;;;;;;;2.10;1.37;;;24.50;42.00;;;;;;5051036;28;20194;-63
2022/05/17 12:09:24;;;;;;;3.13;1.10;;;24.40;44.60;;;;;;5029388;28;20195;-62
2022/05/17 12:12:02;;;;;;;4.30;1.37;;;24.50;44.60;;;;;;5065736;28;20217;-62
2022/05/17 12:14:36;;;;;;;1.53;1.27;;;24.60;46.40;;;;;;5034914;28;20183;-62
2022/05/17 12:17:06;;;;;;;1.57;1.10;;;24.60;44.30;;;;;;5034924;28;20238;-61
2022/05/17 12:20:10;;;;;;;1.77;1.00;;;24.80;43.10;;;;;;5034501;28;20199;-62
2022/05/17 12:22:49;;;;;;;1.43;0.87;;;24.90;42.80;;;;;;4991502;28;20195;-61
2022/05/17 12:25:25;;;;;;;0.87;0.77;;;25.20;42.10;;;;;;4994175;28;20201;-61
2022/05/17 12:27:50;;;;;;;3.23;1.37;;;25.20;41.10;;;;;;5019192;28;20199;-61
2022/05/17 12:33:15;;;;;;;3.57;1.07;;;25.30;42.60;;;;;;5029819;28;20234;-61
2022/05/17 12:35:41;;;;;;;1.60;1.40;;;25.20;41.60;;;;;;5066050;28;20187;-62
2022/05/17 12:43:02;;;;;;;4.17;1.37;;;25.10;41.00;;;;;;5050482;28;20183;-61
2022/05/17 12:43:44;;;;;;;2.70;1.13;;;25.30;42.10;;;;;;5015778;28;20190;-62
2022/05/17 12:46:24;;;;;;;1.70;1.00;;;25.90;40.30;;;;;;5007873;28;20195;-61
2022/05/17 12:48:50;;;;;;;2.43;1.10;;;26.00;39.30;;;;;;5066806;28;20245;-61
2022/05/17 12:51:18;;;;;;;2.50;1.03;;;25.90;38.90;;;;;;5033890;28;20222;-61
2022/05/17 12:53:45;;;;;;;2.57;1.27;;;25.60;39.30;;;;;;5034715;28;20179;-61
2022/05/17 12:56:13;;;;;;;2.00;0.90;;;25.40;39.30;;;;;;5033938;28;20175;-66
2022/05/17 12:58:53;;;;;;;1.30;0.93;;;25.30;40.70;;;;;;5034510;28;20187;-65
2022/05/17 13:01:30;;;;;;;1.73;0.97;;;25.30;39.70;;;;;;5033506;28;20187;-66
2022/05/17 13:03:58;;;;;;;2.33;1.07;;;25.20;40.70;;;;;;5023822;28;20191;-64
2022/05/17 13:06:41;;;;;;;1.33;1.17;;;25.10;41.10;;;;;;5014761;28;20229;-64
2022/05/17 13:09:19;;;;;;;2.23;1.17;;;25.00;41.60;;;;;;5047253;28;20214;-66
2022/05/17 13:11:45;;;;;;;1.63;0.97;;;24.80;41.10;;;;;;5013631;28;20179;-65
2022/05/17 13:14:23;;;;;;;1.63;0.93;;;24.70;41.70;;;;;;5013889;28;20175;-66
2022/05/17 13:16:51;;;;;;;2.47;1.17;;;24.70;42.80;;;;;;5015429;28;20163;-65
2022/05/17 13:19:22;;;;;;;2.37;0.90;;;24.70;42.10;;;;;;5014565;28;20192;-68
2022/05/17 13:21:54;;;;;;;1.30;1.20;;;24.40;41.40;;;;;;5014446;28;20191;-67